createdAt,value
2023-05-04T00:09:46.859Z,985.29
2023-05-04T00:21:47.290Z,985.40
2023-05-04T00:33:47.729Z,985.35
2023-05-04T00:45:48.192Z,985.28
2023-05-04T00:57:48.645Z,985.35
2023-05-04T01:09:49.113Z,985.29
2023-05-04T01:21:49.563Z,985.30
2023-05-04T01:33:49.985Z,985.24
2023-05-04T01:45:50.490Z,985.11
2023-05-04T01:57:50.924Z,985.13
2023-05-04T02:09:51.329Z,985.13
2023-05-04T02:21:51.812Z,985.17
2023-05-04T02:33:52.316Z,985.11
2023-05-04T02:45:52.885Z,985.29
2023-05-04T02:57:53.176Z,985.25
2023-05-04T03:09:53.632Z,985.31
2023-05-04T03:21:54.100Z,985.23
2023-05-04T03:33:54.531Z,985.13
2023-05-04T03:45:55.016Z,985.11
2023-05-04T03:57:55.431Z,985.19
2023-05-04T04:09:55.926Z,985.20
2023-05-04T04:21:56.334Z,985.32
2023-05-04T04:33:56.799Z,985.35
2023-05-04T04:45:57.250Z,985.26
2023-05-04T04:57:57.712Z,985.32
2023-05-04T05:09:58.131Z,985.32
2023-05-04T05:21:58.606Z,985.25
2023-05-04T05:33:59.034Z,985.35
2023-05-04T05:45:59.622Z,985.23
2023-05-04T05:57:59.932Z,985.10
2023-05-04T06:10:00.400Z,985.08
2023-05-04T06:22:00.871Z,985.02
2023-05-04T06:34:01.347Z,985.03
2023-05-04T06:46:01.840Z,985.12
2023-05-04T06:58:02.230Z,985.08
2023-05-04T07:10:02.884Z,984.97
2023-05-04T07:22:03.170Z,985.01
2023-05-04T07:34:03.606Z,985.10
2023-05-04T07:46:04.080Z,985.07
2023-05-04T07:58:04.482Z,985.03
2023-05-04T08:10:05.227Z,985.07
2023-05-04T08:22:05.386Z,985.02
2023-05-04T08:34:05.852Z,984.97
2023-05-04T08:46:06.375Z,985.00
2023-05-04T08:58:06.778Z,984.97
2023-05-04T09:10:07.217Z,985.02
2023-05-04T09:22:07.686Z,985.06
2023-05-04T09:34:08.116Z,984.89
2023-05-04T09:46:08.639Z,984.74
2023-05-04T09:58:09.033Z,984.71
2023-05-04T10:10:09.525Z,984.57
2023-05-04T10:22:09.944Z,984.47
2023-05-04T10:34:10.425Z,984.42
2023-05-04T10:46:10.923Z,984.20
2023-05-04T10:58:11.385Z,984.13
2023-05-04T11:10:11.751Z,983.99
2023-05-04T11:22:12.237Z,984.03
2023-05-04T11:34:12.661Z,983.86
2023-05-04T11:46:13.300Z,983.87
2023-05-04T11:58:13.595Z,983.84
2023-05-04T12:10:14.036Z,983.64
2023-05-04T12:22:14.484Z,983.50
2023-05-04T12:34:14.931Z,983.50
2023-05-04T12:46:15.485Z,983.54
2023-05-04T12:58:15.876Z,983.37
2023-05-04T13:10:16.328Z,983.22
2023-05-04T13:22:16.817Z,983.03
2023-05-04T13:34:17.239Z,982.97
2023-05-04T13:46:17.716Z,982.84
2023-05-04T13:58:18.141Z,982.62
2023-05-04T14:10:18.591Z,982.52
2023-05-04T14:22:19.065Z,982.57
2023-05-04T14:34:19.518Z,982.45
2023-05-04T14:46:19.982Z,982.41
2023-05-04T14:58:20.440Z,982.31
2023-05-04T15:10:20.878Z,982.44
2023-05-04T15:22:21.384Z,982.41
2023-05-04T15:34:21.799Z,982.40
2023-05-04T15:46:22.279Z,982.24
2023-05-04T15:58:22.719Z,982.21
2023-05-04T16:10:23.182Z,982.25
2023-05-04T16:22:23.639Z,982.15
2023-05-04T16:34:24.076Z,982.16
2023-05-04T16:46:24.547Z,982.20
2023-05-04T16:58:25.045Z,982.12
2023-05-04T17:10:25.462Z,982.25
2023-05-04T17:22:25.954Z,982.33
2023-05-04T17:34:26.371Z,982.32
2023-05-04T17:46:26.864Z,982.35
2023-05-04T17:58:27.277Z,982.50
2023-05-04T18:10:27.740Z,982.58
2023-05-04T18:22:28.186Z,982.71
2023-05-04T18:34:28.691Z,982.89
2023-05-04T18:46:29.088Z,983.10
2023-05-04T18:58:29.521Z,983.20
2023-05-04T19:10:30.047Z,983.35
2023-05-04T19:22:30.470Z,983.54
2023-05-04T19:34:30.900Z,983.49
2023-05-04T19:46:31.409Z,983.53
2023-05-04T19:58:31.839Z,983.56
2023-05-04T20:10:32.346Z,983.49
2023-05-04T20:22:32.739Z,983.50
2023-05-04T20:34:33.212Z,983.50
2023-05-04T20:46:33.708Z,983.48
2023-05-04T20:58:34.093Z,983.47
2023-05-04T21:10:34.528Z,983.46
2023-05-04T21:22:35.017Z,983.44
2023-05-04T21:34:35.459Z,983.30
2023-05-04T21:46:35.982Z,983.25
2023-05-04T21:58:36.353Z,983.33
2023-05-04T22:10:36.797Z,983.28
2023-05-04T22:22:37.260Z,983.31
2023-05-04T22:34:37.756Z,983.21
2023-05-04T22:46:38.256Z,983.18
2023-05-04T22:58:38.628Z,983.16
2023-05-04T23:10:39.060Z,983.02
2023-05-04T23:22:39.564Z,982.88
2023-05-04T23:34:39.982Z,982.88
2023-05-04T23:46:40.438Z,982.92
2023-05-04T23:58:40.911Z,982.66
